Airport Name : Bray

Other Name : Albert

ICAO : LFAQ

IATA :

FAA :

Latitude : 49.971531

Longitude : 2.697661

Country : France

Local Date and Time : 4/27/2018 4:42:00 AM

 

TAF (Terminal Aerodrome Forecast)

 

METAR (METeorological Aerodrome Report)

LFAQ 270230Z AUTO 12005KT CAVOK 06/04 Q1014

LFAQ 270200Z AUTO 15004KT CAVOK 06/04 Q1015

LFAQ 270130Z AUTO 12004KT CAVOK 07/05 Q1015

LFAQ 270100Z AUTO 16004KT CAVOK 07/05 Q1015

LFAQ 270030Z AUTO 15004KT CAVOK 07/04 Q1016

LFAQ 270000Z AUTO 15004KT CAVOK 07/04 Q1016

LFAQ 262330Z AUTO 15003KT CAVOK 07/04 Q1017

LFAQ 262300Z AUTO 14004KT CAVOK 07/05 Q1017